KTCL

Tuscaloosa Regional Airport

Tuscaloosa, Alabama, USA
METAR KTCL 211953Z VRB06KT 10SM CLR 22/07 A3013 RMK AO2 SLP201 T02220072
Observed Flight Rules
Jan-21 @ 19:53 UTC (36 minutes ago) Visual Flight Rules
Wind Visibility Clouds
Variable at 6 knots 10 miles
  • Clear skies
Temperatures Readings
Current 22°C / 72°F
Dewpoint 7°C / 45°F
Humidity 38%
Altimeter 30.13" Hg
Pressure 1020.1 hPa
Elevation 49
METAR KTCL 211953Z VRB06KT 10SM CLR 22/07 A3013 RMK AO2 SLP201 T02220072
Observed Flight Rules
Jan-21 @ 19:53 UTC
(36 minutes ago)
VFR
Wind Visibility
Variable at 6 knots 10 miles
Clouds
  • Clear skies
Temperature Dewpoint
22°C / 72°F 7°C / 45°F
Humidity Altimeter Pressure
38% 30.13" Hg 1020.1 hPa